sensor_id;sensor_type;location;lat;lon;timestamp;temperature;humidity
60027;DHT22;45891;53.006;6.512;2022-12-01T00:00:58;5.90;99.90
60027;DHT22;45891;53.006;6.512;2022-12-01T00:03:24;5.90;99.90
60027;DHT22;45891;53.006;6.512;2022-12-01T00:05:57;6.00;99.90
60027;DHT22;45891;53.006;6.512;2022-12-01T00:08:23;5.90;99.90
60027;DHT22;45891;53.006;6.512;2022-12-01T00:10:48;5.90;99.90
60027;DHT22;45891;53.006;6.512;2022-12-01T00:13:14;5.90;99.90
60027;DHT22;45891;53.006;6.512;2022-12-01T00:15:40;5.90;99.90
60027;DHT22;45891;53.006;6.512;2022-12-01T00:18:06;5.90;99.90
60027;DHT22;45891;53.006;6.512;2022-12-01T00:20:33;6.00;99.90
60027;DHT22;45891;53.006;6.512;2022-12-01T00:22:59;5.90;99.90
60027;DHT22;45891;53.006;6.512;2022-12-01T00:25:25;5.90;99.90
60027;DHT22;45891;53.006;6.512;2022-12-01T00:27:52;5.90;99.90
60027;DHT22;45891;53.006;6.512;2022-12-01T00:30:18;5.90;99.90
60027;DHT22;45891;53.006;6.512;2022-12-01T00:32:45;5.90;99.90
60027;DHT22;45891;53.006;6.512;2022-12-01T00:35:11;5.90;99.90
60027;DHT22;45891;53.006;6.512;2022-12-01T00:37:37;5.90;99.90
60027;DHT22;45891;53.006;6.512;2022-12-01T00:40:05;5.90;99.90
60027;DHT22;45891;53.006;6.512;2022-12-01T00:42:31;5.90;99.90
60027;DHT22;45891;53.006;6.512;2022-12-01T00:44:57;5.90;99.90
60027;DHT22;45891;53.006;6.512;2022-12-01T00:47:23;5.90;99.90
60027;DHT22;45891;53.006;6.512;2022-12-01T00:49:49;5.90;99.90
60027;DHT22;45891;53.006;6.512;2022-12-01T00:52:17;5.90;99.90
60027;DHT22;45891;53.006;6.512;2022-12-01T00:54:43;5.90;99.90
60027;DHT22;45891;53.006;6.512;2022-12-01T00:57:09;5.90;99.90
60027;DHT22;45891;53.006;6.512;2022-12-01T00:59:35;5.90;99.90
60027;DHT22;45891;53.006;6.512;2022-12-01T01:02:02;5.90;99.90
60027;DHT22;45891;53.006;6.512;2022-12-01T01:04:29;5.90;99.90
60027;DHT22;45891;53.006;6.512;2022-12-01T01:06:55;5.90;99.90
60027;DHT22;45891;53.006;6.512;2022-12-01T01:09:21;5.90;99.90
60027;DHT22;45891;53.006;6.512;2022-12-01T01:11:47;5.90;99.90
60027;DHT22;45891;53.006;6.512;2022-12-01T01:14:13;5.90;99.90
60027;DHT22;45891;53.006;6.512;2022-12-01T01:16:39;5.90;99.90
60027;DHT22;45891;53.006;6.512;2022-12-01T01:19:05;5.90;99.90
60027;DHT22;45891;53.006;6.512;2022-12-01T01:21:31;5.90;99.90
60027;DHT22;45891;53.006;6.512;2022-12-01T01:23:57;5.90;99.90
60027;DHT22;45891;53.006;6.512;2022-12-01T01:26:25;5.90;99.90
60027;DHT22;45891;53.006;6.512;2022-12-01T01:28:51;5.80;99.90
60027;DHT22;45891;53.006;6.512;2022-12-01T01:31:22;5.80;99.90
60027;DHT22;45891;53.006;6.512;2022-12-01T01:33:48;5.90;99.90
60027;DHT22;45891;53.006;6.512;2022-12-01T01:36:14;5.90;99.90
60027;DHT22;45891;53.006;6.512;2022-12-01T01:38:40;5.90;99.90
60027;DHT22;45891;53.006;6.512;2022-12-01T01:41:06;5.90;99.90
60027;DHT22;45891;53.006;6.512;2022-12-01T01:46:15;5.90;99.90
60027;DHT22;45891;53.006;6.512;2022-12-01T01:48:42;5.80;99.90
60027;DHT22;45891;53.006;6.512;2022-12-01T01:51:10;5.80;99.90
60027;DHT22;45891;53.006;6.512;2022-12-01T01:53:37;5.90;99.90
60027;DHT22;45891;53.006;6.512;2022-12-01T01:56:03;5.80;99.90
60027;DHT22;45891;53.006;6.512;2022-12-01T01:58:29;5.80;99.90
60027;DHT22;45891;53.006;6.512;2022-12-01T02:00:56;5.80;99.90
60027;DHT22;45891;53.006;6.512;2022-12-01T02:03:22;5.80;99.90
60027;DHT22;45891;53.006;6.512;2022-12-01T02:05:49;5.80;99.90
60027;DHT22;45891;53.006;6.512;2022-12-01T02:08:15;5.80;99.90
60027;DHT22;45891;53.006;6.512;2022-12-01T02:16:13;5.80;99.90
60027;DHT22;45891;53.006;6.512;2022-12-01T02:24:20;5.80;99.90
60027;DHT22;45891;53.006;6.512;2022-12-01T02:34:38;5.80;99.90
60027;DHT22;45891;53.006;6.512;2022-12-01T02:37:27;5.80;99.90
60027;DHT22;45891;53.006;6.512;2022-12-01T02:42:27;5.80;99.90
60027;DHT22;45891;53.006;6.512;2022-12-01T02:45:13;5.80;99.90
60027;DHT22;45891;53.006;6.512;2022-12-01T02:47:41;5.80;99.90
60027;DHT22;45891;53.006;6.512;2022-12-01T02:50:09;5.80;99.90
60027;DHT22;45891;53.006;6.512;2022-12-01T02:52:36;5.80;99.90
60027;DHT22;45891;53.006;6.512;2022-12-01T02:55:03;5.70;99.90
60027;DHT22;45891;53.006;6.512;2022-12-01T02:57:29;5.80;99.90
60027;DHT22;45891;53.006;6.512;2022-12-01T02:59:55;5.80;99.90
60027;DHT22;45891;53.006;6.512;2022-12-01T03:04:55;5.80;99.90
60027;DHT22;45891;53.006;6.512;2022-12-01T03:10:04;5.80;99.90
60027;DHT22;45891;53.006;6.512;2022-12-01T03:17:56;5.80;99.90
60027;DHT22;45891;53.006;6.512;2022-12-01T03:20:24;5.80;99.90
60027;DHT22;45891;53.006;6.512;2022-12-01T03:22:57;5.80;99.90
60027;DHT22;45891;53.006;6.512;2022-12-01T03:25:25;5.80;99.90
60027;DHT22;45891;53.006;6.512;2022-12-01T03:27:53;5.80;99.90
60027;DHT22;45891;53.006;6.512;2022-12-01T03:30:22;5.80;99.90
60027;DHT22;45891;53.006;6.512;2022-12-01T03:32:59;5.80;99.90
60027;DHT22;45891;53.006;6.512;2022-12-01T03:35:30;5.80;99.90
60027;DHT22;45891;53.006;6.512;2022-12-01T03:40:24;5.80;99.90
60027;DHT22;45891;53.006;6.512;2022-12-01T03:42:53;5.80;99.90
60027;DHT22;45891;53.006;6.512;2022-12-01T03:48:01;5.80;99.90
60027;DHT22;45891;53.006;6.512;2022-12-01T03:50:30;5.80;99.90
60027;DHT22;45891;53.006;6.512;2022-12-01T03:55:29;5.70;99.90
60027;DHT22;45891;53.006;6.512;2022-12-01T04:00:25;5.70;99.90
60027;DHT22;45891;53.006;6.512;2022-12-01T04:02:58;5.70;99.90
60027;DHT22;45891;53.006;6.512;2022-12-01T04:05:24;5.70;99.90
60027;DHT22;45891;53.006;6.512;2022-12-01T04:07:51;5.70;99.90
60027;DHT22;45891;53.006;6.512;2022-12-01T04:10:17;5.70;99.90
60027;DHT22;45891;53.006;6.512;2022-12-01T04:12:43;5.70;99.90
60027;DHT22;45891;53.006;6.512;2022-12-01T04:15:10;5.70;99.90
60027;DHT22;45891;53.006;6.512;2022-12-01T04:17:37;5.70;99.90
60027;DHT22;45891;53.006;6.512;2022-12-01T04:20:05;5.70;99.90
60027;DHT22;45891;53.006;6.512;2022-12-01T04:22:31;5.70;99.90
60027;DHT22;45891;53.006;6.512;2022-12-01T04:24:57;5.70;99.90
60027;DHT22;45891;53.006;6.512;2022-12-01T04:27:23;5.70;99.90
60027;DHT22;45891;53.006;6.512;2022-12-01T04:29:49;5.70;99.90
60027;DHT22;45891;53.006;6.512;2022-12-01T04:32:15;5.70;99.90
60027;DHT22;45891;53.006;6.512;2022-12-01T04:34:41;5.70;99.90
60027;DHT22;45891;53.006;6.512;2022-12-01T04:37:08;5.70;99.90
60027;DHT22;45891;53.006;6.512;2022-12-01T04:39:34;5.70;99.90
60027;DHT22;45891;53.006;6.512;2022-12-01T04:42:01;5.70;99.90
60027;DHT22;45891;53.006;6.512;2022-12-01T04:44:27;5.70;99.90
60027;DHT22;45891;53.006;6.512;2022-12-01T04:46:53;5.70;99.90
60027;DHT22;45891;53.006;6.512;2022-12-01T04:49:19;5.70;99.90
60027;DHT22;45891;53.006;6.512;2022-12-01T04:51:46;5.70;99.90
60027;DHT22;45891;53.006;6.512;2022-12-01T04:54:12;5.70;99.90
60027;DHT22;45891;53.006;6.512;2022-12-01T04:56:39;5.70;99.90
60027;DHT22;45891;53.006;6.512;2022-12-01T04:59:05;5.70;99.90
60027;DHT22;45891;53.006;6.512;2022-12-01T05:01:31;5.70;99.90
60027;DHT22;45891;53.006;6.512;2022-12-01T05:03:57;5.70;99.90
60027;DHT22;45891;53.006;6.512;2022-12-01T05:06:24;5.70;99.90
60027;DHT22;45891;53.006;6.512;2022-12-01T05:08:52;5.70;99.90
60027;DHT22;45891;53.006;6.512;2022-12-01T05:11:19;5.70;99.90
60027;DHT22;45891;53.006;6.512;2022-12-01T05:13:46;5.70;99.90
60027;DHT22;45891;53.006;6.512;2022-12-01T05:16:13;5.70;99.90
60027;DHT22;45891;53.006;6.512;2022-12-01T05:18:39;5.70;99.90
60027;DHT22;45891;53.006;6.512;2022-12-01T05:21:06;5.70;99.90
60027;DHT22;45891;53.006;6.512;2022-12-01T05:23:33;5.70;99.90
60027;DHT22;45891;53.006;6.512;2022-12-01T05:26:00;5.70;99.90
60027;DHT22;45891;53.006;6.512;2022-12-01T05:28:26;5.70;99.90
60027;DHT22;45891;53.006;6.512;2022-12-01T05:30:52;5.70;99.90
60027;DHT22;45891;53.006;6.512;2022-12-01T05:33:19;5.70;99.90
60027;DHT22;45891;53.006;6.512;2022-12-01T05:35:46;5.70;99.90
60027;DHT22;45891;53.006;6.512;2022-12-01T05:38:12;5.70;99.90
60027;DHT22;45891;53.006;6.512;2022-12-01T05:40:38;5.70;99.90
60027;DHT22;45891;53.006;6.512;2022-12-01T05:43:05;5.70;99.90
60027;DHT22;45891;53.006;6.512;2022-12-01T05:45:31;5.70;99.90
60027;DHT22;45891;53.006;6.512;2022-12-01T05:47:57;5.70;99.90
60027;DHT22;45891;53.006;6.512;2022-12-01T05:50:24;5.70;99.90
60027;DHT22;45891;53.006;6.512;2022-12-01T05:52:51;5.60;99.90
60027;DHT22;45891;53.006;6.512;2022-12-01T05:55:17;5.60;99.90
60027;DHT22;45891;53.006;6.512;2022-12-01T05:57:43;5.60;99.90
60027;DHT22;45891;53.006;6.512;2022-12-01T06:00:09;5.60;99.90
60027;DHT22;45891;53.006;6.512;2022-12-01T06:02:36;5.60;99.90
60027;DHT22;45891;53.006;6.512;2022-12-01T06:05:02;5.60;99.90
60027;DHT22;45891;53.006;6.512;2022-12-01T06:07:28;5.60;99.90
60027;DHT22;45891;53.006;6.512;2022-12-01T06:09:54;5.60;99.90
60027;DHT22;45891;53.006;6.512;2022-12-01T06:12:20;5.50;99.90
60027;DHT22;45891;53.006;6.512;2022-12-01T06:14:46;5.40;99.90
60027;DHT22;45891;53.006;6.512;2022-12-01T06:17:12;5.40;99.90
60027;DHT22;45891;53.006;6.512;2022-12-01T06:19:38;5.30;99.90
60027;DHT22;45891;53.006;6.512;2022-12-01T06:22:04;5.20;99.90
60027;DHT22;45891;53.006;6.512;2022-12-01T06:24:30;5.10;99.90
60027;DHT22;45891;53.006;6.512;2022-12-01T06:26:57;5.00;99.90
60027;DHT22;45891;53.006;6.512;2022-12-01T06:29:23;4.90;99.90
60027;DHT22;45891;53.006;6.512;2022-12-01T06:31:49;4.80;99.90
60027;DHT22;45891;53.006;6.512;2022-12-01T06:34:15;4.80;99.90
60027;DHT22;45891;53.006;6.512;2022-12-01T06:36:41;4.70;99.90
60027;DHT22;45891;53.006;6.512;2022-12-01T06:39:07;4.60;99.90
60027;DHT22;45891;53.006;6.512;2022-12-01T06:41:36;4.60;99.90
60027;DHT22;45891;53.006;6.512;2022-12-01T06:44:03;4.50;99.90
60027;DHT22;45891;53.006;6.512;2022-12-01T06:46:29;4.40;99.90
60027;DHT22;45891;53.006;6.512;2022-12-01T06:48:55;4.40;99.90
60027;DHT22;45891;53.006;6.512;2022-12-01T06:51:21;4.30;99.90
60027;DHT22;45891;53.006;6.512;2022-12-01T06:53:47;4.30;99.90
60027;DHT22;45891;53.006;6.512;2022-12-01T06:56:13;4.30;99.90
60027;DHT22;45891;53.006;6.512;2022-12-01T06:58:39;4.30;99.90
60027;DHT22;45891;53.006;6.512;2022-12-01T07:01:08;4.30;99.90
60027;DHT22;45891;53.006;6.512;2022-12-01T07:03:34;4.30;99.90
60027;DHT22;45891;53.006;6.512;2022-12-01T07:06:01;4.40;99.90
60027;DHT22;45891;53.006;6.512;2022-12-01T07:08:27;4.40;99.90
60027;DHT22;45891;53.006;6.512;2022-12-01T07:10:57;4.50;99.90
60027;DHT22;45891;53.006;6.512;2022-12-01T07:13:24;4.50;99.90
60027;DHT22;45891;53.006;6.512;2022-12-01T07:15:49;4.60;99.90
60027;DHT22;45891;53.006;6.512;2022-12-01T07:18:15;4.60;99.90
60027;DHT22;45891;53.006;6.512;2022-12-01T07:20:41;4.60;99.90
60027;DHT22;45891;53.006;6.512;2022-12-01T07:23:07;4.70;99.90
60027;DHT22;45891;53.006;6.512;2022-12-01T07:25:33;4.70;99.90
60027;DHT22;45891;53.006;6.512;2022-12-01T07:27:59;4.70;99.90
60027;DHT22;45891;53.006;6.512;2022-12-01T07:30:25;4.70;99.90
60027;DHT22;45891;53.006;6.512;2022-12-01T07:32:51;4.70;99.90
60027;DHT22;45891;53.006;6.512;2022-12-01T07:35:17;4.80;99.90
60027;DHT22;45891;53.006;6.512;2022-12-01T07:37:43;4.80;99.90
60027;DHT22;45891;53.006;6.512;2022-12-01T07:40:09;4.80;99.90
60027;DHT22;45891;53.006;6.512;2022-12-01T07:42:35;4.80;99.90
60027;DHT22;45891;53.006;6.512;2022-12-01T07:45:01;4.90;99.90
60027;DHT22;45891;53.006;6.512;2022-12-01T07:47:27;4.90;99.90
60027;DHT22;45891;53.006;6.512;2022-12-01T07:49:53;4.80;99.90
60027;DHT22;45891;53.006;6.512;2022-12-01T07:52:19;4.90;99.90
60027;DHT22;45891;53.006;6.512;2022-12-01T07:54:45;4.90;99.90
60027;DHT22;45891;53.006;6.512;2022-12-01T07:57:10;4.80;99.90
60027;DHT22;45891;53.006;6.512;2022-12-01T07:59:39;4.80;99.90
60027;DHT22;45891;53.006;6.512;2022-12-01T08:02:05;4.70;99.90
60027;DHT22;45891;53.006;6.512;2022-12-01T08:04:31;4.70;99.90
60027;DHT22;45891;53.006;6.512;2022-12-01T08:06:57;4.60;99.90
60027;DHT22;45891;53.006;6.512;2022-12-01T08:09:22;4.50;99.90
60027;DHT22;45891;53.006;6.512;2022-12-01T08:11:49;4.50;99.90
60027;DHT22;45891;53.006;6.512;2022-12-01T08:14:14;4.40;99.90
60027;DHT22;45891;53.006;6.512;2022-12-01T08:16:40;4.40;99.90
60027;DHT22;45891;53.006;6.512;2022-12-01T08:19:08;4.40;99.90
60027;DHT22;45891;53.006;6.512;2022-12-01T08:21:34;4.40;99.90
60027;DHT22;45891;53.006;6.512;2022-12-01T08:24:02;4.30;99.90
60027;DHT22;45891;53.006;6.512;2022-12-01T08:26:29;4.30;99.90
60027;DHT22;45891;53.006;6.512;2022-12-01T08:28:55;4.30;99.90
60027;DHT22;45891;53.006;6.512;2022-12-01T08:31:23;4.30;99.90
60027;DHT22;45891;53.006;6.512;2022-12-01T08:33:49;4.30;99.90
60027;DHT22;45891;53.006;6.512;2022-12-01T08:36:16;4.20;99.90
60027;DHT22;45891;53.006;6.512;2022-12-01T08:38:42;4.20;99.90
60027;DHT22;45891;53.006;6.512;2022-12-01T08:41:09;4.20;99.90
60027;DHT22;45891;53.006;6.512;2022-12-01T08:43:35;4.20;99.90
60027;DHT22;45891;53.006;6.512;2022-12-01T08:46:06;4.10;99.90
60027;DHT22;45891;53.006;6.512;2022-12-01T08:48:33;4.20;99.90
60027;DHT22;45891;53.006;6.512;2022-12-01T08:53:28;4.10;99.90
60027;DHT22;45891;53.006;6.512;2022-12-01T08:55:54;4.10;99.90
60027;DHT22;45891;53.006;6.512;2022-12-01T08:58:20;4.20;99.90
60027;DHT22;45891;53.006;6.512;2022-12-01T09:00:46;4.10;99.90
60027;DHT22;45891;53.006;6.512;2022-12-01T09:03:12;4.20;99.90
60027;DHT22;45891;53.006;6.512;2022-12-01T09:05:38;4.20;99.90
60027;DHT22;45891;53.006;6.512;2022-12-01T09:08:03;4.20;99.90
60027;DHT22;45891;53.006;6.512;2022-12-01T09:10:51;4.30;99.90
60027;DHT22;45891;53.006;6.512;2022-12-01T09:13:17;4.20;99.90
60027;DHT22;45891;53.006;6.512;2022-12-01T09:15:43;4.30;99.90
60027;DHT22;45891;53.006;6.512;2022-12-01T09:18:09;4.30;99.90
60027;DHT22;45891;53.006;6.512;2022-12-01T09:20:35;4.30;99.90
60027;DHT22;45891;53.006;6.512;2022-12-01T09:23:00;4.30;99.90
60027;DHT22;45891;53.006;6.512;2022-12-01T09:25:26;4.30;99.90
60027;DHT22;45891;53.006;6.512;2022-12-01T09:27:53;4.40;99.90
60027;DHT22;45891;53.006;6.512;2022-12-01T09:30:18;4.40;99.90
60027;DHT22;45891;53.006;6.512;2022-12-01T09:32:44;4.40;99.90
60027;DHT22;45891;53.006;6.512;2022-12-01T09:35:10;4.50;99.90
60027;DHT22;45891;53.006;6.512;2022-12-01T09:37:36;4.50;99.90
60027;DHT22;45891;53.006;6.512;2022-12-01T09:40:02;4.50;99.90
60027;DHT22;45891;53.006;6.512;2022-12-01T09:42:28;4.60;99.90
60027;DHT22;45891;53.006;6.512;2022-12-01T09:44:55;4.60;99.90
60027;DHT22;45891;53.006;6.512;2022-12-01T09:47:24;4.60;99.90
60027;DHT22;45891;53.006;6.512;2022-12-01T09:52:19;4.70;99.90
60027;DHT22;45891;53.006;6.512;2022-12-01T09:54:45;4.70;99.90
60027;DHT22;45891;53.006;6.512;2022-12-01T10:00:06;4.70;99.90
60027;DHT22;45891;53.006;6.512;2022-12-01T10:02:33;4.80;99.90
60027;DHT22;45891;53.006;6.512;2022-12-01T10:05:00;4.80;99.90
60027;DHT22;45891;53.006;6.512;2022-12-01T10:07:29;4.80;99.90
60027;DHT22;45891;53.006;6.512;2022-12-01T10:09:57;4.90;99.90
60027;DHT22;45891;53.006;6.512;2022-12-01T10:12:24;4.90;99.90
60027;DHT22;45891;53.006;6.512;2022-12-01T10:14:53;5.00;99.90
60027;DHT22;45891;53.006;6.512;2022-12-01T10:17:32;5.10;99.90
60027;DHT22;45891;53.006;6.512;2022-12-01T10:20:19;5.10;99.90
60027;DHT22;45891;53.006;6.512;2022-12-01T10:25:27;5.20;99.90
60027;DHT22;45891;53.006;6.512;2022-12-01T10:30:45;5.30;99.90
60027;DHT22;45891;53.006;6.512;2022-12-01T10:33:26;5.30;99.90
60027;DHT22;45891;53.006;6.512;2022-12-01T10:35:53;5.40;99.90
60027;DHT22;45891;53.006;6.512;2022-12-01T10:38:27;5.40;99.90
60027;DHT22;45891;53.006;6.512;2022-12-01T10:40:53;5.50;99.90
60027;DHT22;45891;53.006;6.512;2022-12-01T10:43:25;5.60;99.90
60027;DHT22;45891;53.006;6.512;2022-12-01T10:45:51;5.60;99.90
60027;DHT22;45891;53.006;6.512;2022-12-01T10:48:19;5.70;99.90
60027;DHT22;45891;53.006;6.512;2022-12-01T10:50:49;5.80;99.90
60027;DHT22;45891;53.006;6.512;2022-12-01T10:58:33;6.20;99.90
60027;DHT22;45891;53.006;6.512;2022-12-01T11:01:04;6.30;99.90
60027;DHT22;45891;53.006;6.512;2022-12-01T11:03:31;6.30;99.90
60027;DHT22;45891;53.006;6.512;2022-12-01T11:05:59;6.40;99.90
60027;DHT22;45891;53.006;6.512;2022-12-01T11:08:39;6.50;99.90
60027;DHT22;45891;53.006;6.512;2022-12-01T11:11:15;6.50;99.90
60027;DHT22;45891;53.006;6.512;2022-12-01T11:13:46;6.60;99.90
60027;DHT22;45891;53.006;6.512;2022-12-01T11:16:30;6.50;99.90
60027;DHT22;45891;53.006;6.512;2022-12-01T11:21:54;6.60;99.90
60027;DHT22;45891;53.006;6.512;2022-12-01T11:26:52;6.80;99.90
60027;DHT22;45891;53.006;6.512;2022-12-01T11:29:26;6.80;99.90
60027;DHT22;45891;53.006;6.512;2022-12-01T11:31:53;6.80;99.90
60027;DHT22;45891;53.006;6.512;2022-12-01T11:34:23;6.80;99.90
60027;DHT22;45891;53.006;6.512;2022-12-01T11:36:51;7.00;99.90
60027;DHT22;45891;53.006;6.512;2022-12-01T11:39:22;7.10;99.90
60027;DHT22;45891;53.006;6.512;2022-12-01T11:41:53;7.20;99.90
60027;DHT22;45891;53.006;6.512;2022-12-01T11:44:19;7.20;99.90
60027;DHT22;45891;53.006;6.512;2022-12-01T11:46:45;7.30;99.90
60027;DHT22;45891;53.006;6.512;2022-12-01T11:49:20;7.30;99.90
60027;DHT22;45891;53.006;6.512;2022-12-01T11:51:46;7.30;99.90
60027;DHT22;45891;53.006;6.512;2022-12-01T11:54:19;7.40;99.90
60027;DHT22;45891;53.006;6.512;2022-12-01T11:56:46;7.40;99.90
60027;DHT22;45891;53.006;6.512;2022-12-01T11:59:26;7.30;99.90
60027;DHT22;45891;53.006;6.512;2022-12-01T12:14:29;8.00;99.90
60027;DHT22;45891;53.006;6.512;2022-12-01T12:22:29;8.40;99.90
60027;DHT22;45891;53.006;6.512;2022-12-01T12:30:20;8.10;99.90
60027;DHT22;45891;53.006;6.512;2022-12-01T12:37:53;8.70;99.90
60027;DHT22;45891;53.006;6.512;2022-12-01T12:45:45;11.60;99.90
60027;DHT22;45891;53.006;6.512;2022-12-01T12:53:14;11.70;99.90
60027;DHT22;45891;53.006;6.512;2022-12-01T12:55:44;11.40;99.90
60027;DHT22;45891;53.006;6.512;2022-12-01T13:00:45;10.90;99.90
60027;DHT22;45891;53.006;6.512;2022-12-01T13:03:16;10.50;99.90
60027;DHT22;45891;53.006;6.512;2022-12-01T13:05:46;10.30;99.90
60027;DHT22;45891;53.006;6.512;2022-12-01T13:08:19;10.00;99.90
60027;DHT22;45891;53.006;6.512;2022-12-01T13:15:38;9.20;99.90
60027;DHT22;45891;53.006;6.512;2022-12-01T13:18:16;8.90;99.90
60027;DHT22;45891;53.006;6.512;2022-12-01T13:20:44;8.70;99.90
60027;DHT22;45891;53.006;6.512;2022-12-01T13:23:12;8.50;99.90
60027;DHT22;45891;53.006;6.512;2022-12-01T13:25:39;8.30;99.90
60027;DHT22;45891;53.006;6.512;2022-12-01T13:28:12;8.00;99.90
60027;DHT22;45891;53.006;6.512;2022-12-01T13:30:39;7.90;99.90
60027;DHT22;45891;53.006;6.512;2022-12-01T13:33:05;7.80;99.90
60027;DHT22;45891;53.006;6.512;2022-12-01T13:35:35;7.70;99.90
60027;DHT22;45891;53.006;6.512;2022-12-01T13:40:43;7.60;99.90
60027;DHT22;45891;53.006;6.512;2022-12-01T13:43:19;7.50;99.90
60027;DHT22;45891;53.006;6.512;2022-12-01T13:45:45;7.40;99.90
60027;DHT22;45891;53.006;6.512;2022-12-01T13:48:28;7.30;99.90
60027;DHT22;45891;53.006;6.512;2022-12-01T13:51:10;7.30;99.90
60027;DHT22;45891;53.006;6.512;2022-12-01T13:53:51;7.20;99.90
60027;DHT22;45891;53.006;6.512;2022-12-01T13:56:23;7.10;99.90
60027;DHT22;45891;53.006;6.512;2022-12-01T13:58:51;7.10;99.90
60027;DHT22;45891;53.006;6.512;2022-12-01T14:03:59;7.00;99.90
60027;DHT22;45891;53.006;6.512;2022-12-01T14:06:46;7.00;99.90
60027;DHT22;45891;53.006;6.512;2022-12-01T14:11:53;7.00;99.90
60027;DHT22;45891;53.006;6.512;2022-12-01T14:14:21;7.00;99.90
60027;DHT22;45891;53.006;6.512;2022-12-01T14:16:49;6.90;99.90
60027;DHT22;45891;53.006;6.512;2022-12-01T14:19:49;6.90;99.90
60027;DHT22;45891;53.006;6.512;2022-12-01T14:22:29;6.90;99.90
60027;DHT22;45891;53.006;6.512;2022-12-01T14:24:54;6.90;99.90
60027;DHT22;45891;53.006;6.512;2022-12-01T14:27:39;6.90;99.90
60027;DHT22;45891;53.006;6.512;2022-12-01T14:32:50;6.70;99.90
60027;DHT22;45891;53.006;6.512;2022-12-01T14:35:16;6.70;99.90
60027;DHT22;45891;53.006;6.512;2022-12-01T14:37:42;6.70;99.90
60027;DHT22;45891;53.006;6.512;2022-12-01T14:40:14;6.60;99.90
60027;DHT22;45891;53.006;6.512;2022-12-01T14:42:42;6.60;99.90
60027;DHT22;45891;53.006;6.512;2022-12-01T14:45:29;6.70;99.90
60027;DHT22;45891;53.006;6.512;2022-12-01T14:48:03;6.60;99.90
60027;DHT22;45891;53.006;6.512;2022-12-01T14:50:31;6.60;99.90
60027;DHT22;45891;53.006;6.512;2022-12-01T14:55:51;6.50;99.90
60027;DHT22;45891;53.006;6.512;2022-12-01T14:58:25;6.40;99.90
60027;DHT22;45891;53.006;6.512;2022-12-01T15:03:32;6.40;99.90
60027;DHT22;45891;53.006;6.512;2022-12-01T15:05:59;6.40;99.90
60027;DHT22;45891;53.006;6.512;2022-12-01T15:08:27;6.30;99.90
60027;DHT22;45891;53.006;6.512;2022-12-01T15:10:54;6.30;99.90
60027;DHT22;45891;53.006;6.512;2022-12-01T15:13:22;6.20;99.90
60027;DHT22;45891;53.006;6.512;2022-12-01T15:18:28;6.20;99.90
60027;DHT22;45891;53.006;6.512;2022-12-01T15:20:56;6.20;99.90
60027;DHT22;45891;53.006;6.512;2022-12-01T15:23:23;6.20;99.90
60027;DHT22;45891;53.006;6.512;2022-12-01T15:25:49;6.10;99.90
60027;DHT22;45891;53.006;6.512;2022-12-01T15:30:42;6.10;99.90
60027;DHT22;45891;53.006;6.512;2022-12-01T15:33:10;6.10;99.90
60027;DHT22;45891;53.006;6.512;2022-12-01T15:35:40;6.00;99.90
60027;DHT22;45891;53.006;6.512;2022-12-01T15:38:10;6.00;99.90
60027;DHT22;45891;53.006;6.512;2022-12-01T15:40:40;6.00;99.90
60027;DHT22;45891;53.006;6.512;2022-12-01T15:43:17;6.00;99.90
60027;DHT22;45891;53.006;6.512;2022-12-01T15:45:54;5.90;99.90
60027;DHT22;45891;53.006;6.512;2022-12-01T15:48:31;5.90;99.90
60027;DHT22;45891;53.006;6.512;2022-12-01T15:50:58;5.90;99.90
60027;DHT22;45891;53.006;6.512;2022-12-01T15:53:26;5.90;99.90
60027;DHT22;45891;53.006;6.512;2022-12-01T15:55:54;5.80;99.90
60027;DHT22;45891;53.006;6.512;2022-12-01T15:58:22;5.80;99.90
60027;DHT22;45891;53.006;6.512;2022-12-01T16:01:02;5.80;99.90
60027;DHT22;45891;53.006;6.512;2022-12-01T16:03:29;5.80;99.90
60027;DHT22;45891;53.006;6.512;2022-12-01T16:05:56;5.80;99.90
60027;DHT22;45891;53.006;6.512;2022-12-01T16:08:23;5.70;99.90
60027;DHT22;45891;53.006;6.512;2022-12-01T16:13:40;5.70;99.90
60027;DHT22;45891;53.006;6.512;2022-12-01T16:18:56;5.70;99.90
60027;DHT22;45891;53.006;6.512;2022-12-01T16:21:23;5.70;99.90
60027;DHT22;45891;53.006;6.512;2022-12-01T16:24:00;5.70;99.90
60027;DHT22;45891;53.006;6.512;2022-12-01T16:26:26;5.60;99.90
60027;DHT22;45891;53.006;6.512;2022-12-01T16:28:53;5.60;99.90
60027;DHT22;45891;53.006;6.512;2022-12-01T16:31:19;5.60;99.90
60027;DHT22;45891;53.006;6.512;2022-12-01T16:33:45;5.50;99.90
60027;DHT22;45891;53.006;6.512;2022-12-01T16:36:12;5.50;99.90
60027;DHT22;45891;53.006;6.512;2022-12-01T16:38:40;5.50;99.90
60027;DHT22;45891;53.006;6.512;2022-12-01T16:41:14;5.50;99.90
60027;DHT22;45891;53.006;6.512;2022-12-01T16:43:41;5.50;99.90
60027;DHT22;45891;53.006;6.512;2022-12-01T16:46:10;5.40;99.90
60027;DHT22;45891;53.006;6.512;2022-12-01T16:48:37;5.40;99.90
60027;DHT22;45891;53.006;6.512;2022-12-01T16:51:03;5.40;99.90
60027;DHT22;45891;53.006;6.512;2022-12-01T16:53:30;5.40;99.90
60027;DHT22;45891;53.006;6.512;2022-12-01T16:55:57;5.40;99.90
60027;DHT22;45891;53.006;6.512;2022-12-01T16:58:23;5.40;99.90
60027;DHT22;45891;53.006;6.512;2022-12-01T17:00:50;5.30;99.90
60027;DHT22;45891;53.006;6.512;2022-12-01T17:03:19;5.30;99.90
60027;DHT22;45891;53.006;6.512;2022-12-01T17:05:45;5.30;99.90
60027;DHT22;45891;53.006;6.512;2022-12-01T17:08:13;5.30;99.90
60027;DHT22;45891;53.006;6.512;2022-12-01T17:10:39;5.30;99.90
60027;DHT22;45891;53.006;6.512;2022-12-01T17:13:05;5.30;99.90
60027;DHT22;45891;53.006;6.512;2022-12-01T17:15:31;5.30;99.90
60027;DHT22;45891;53.006;6.512;2022-12-01T17:17:57;5.30;99.90
60027;DHT22;45891;53.006;6.512;2022-12-01T17:20:23;5.30;99.90
60027;DHT22;45891;53.006;6.512;2022-12-01T17:22:49;5.30;99.90
60027;DHT22;45891;53.006;6.512;2022-12-01T17:25:15;5.30;99.90
60027;DHT22;45891;53.006;6.512;2022-12-01T17:27:41;5.20;99.90
60027;DHT22;45891;53.006;6.512;2022-12-01T17:30:08;5.20;99.90
60027;DHT22;45891;53.006;6.512;2022-12-01T17:32:35;5.20;99.90
60027;DHT22;45891;53.006;6.512;2022-12-01T17:35:01;5.20;99.90
60027;DHT22;45891;53.006;6.512;2022-12-01T17:37:28;5.20;99.90
60027;DHT22;45891;53.006;6.512;2022-12-01T17:39:54;5.20;99.90
60027;DHT22;45891;53.006;6.512;2022-12-01T17:42:20;5.20;99.90
60027;DHT22;45891;53.006;6.512;2022-12-01T17:44:46;5.20;99.90
60027;DHT22;45891;53.006;6.512;2022-12-01T17:47:12;5.20;99.90
60027;DHT22;45891;53.006;6.512;2022-12-01T17:49:37;5.20;99.90
60027;DHT22;45891;53.006;6.512;2022-12-01T17:52:04;5.20;99.90
60027;DHT22;45891;53.006;6.512;2022-12-01T17:54:30;5.30;99.90
60027;DHT22;45891;53.006;6.512;2022-12-01T17:56:56;5.20;99.90
60027;DHT22;45891;53.006;6.512;2022-12-01T17:59:22;5.20;99.90
60027;DHT22;45891;53.006;6.512;2022-12-01T18:01:48;5.20;99.90
60027;DHT22;45891;53.006;6.512;2022-12-01T18:04:14;5.20;99.90
60027;DHT22;45891;53.006;6.512;2022-12-01T18:06:39;5.20;99.90
60027;DHT22;45891;53.006;6.512;2022-12-01T18:09:05;5.20;99.90
60027;DHT22;45891;53.006;6.512;2022-12-01T18:11:32;5.20;99.90